createdAt,value
2023-03-26T00:07:31.519Z,4.47
2023-03-26T00:17:37.009Z,9.90
2023-03-26T00:27:40.607Z,10.20
2023-03-26T00:37:43.464Z,10.50
2023-03-26T00:47:46.365Z,10.83
2023-03-26T00:57:48.570Z,12.97
2023-03-26T01:07:51.566Z,10.17
2023-03-26T01:17:58.061Z,15.10
2023-03-26T01:28:01.042Z,16.17
2023-03-26T01:38:24.630Z,15.27
2023-03-26T01:48:39.824Z,14.17
2023-03-26T01:58:54.270Z,23.50
2023-03-26T02:09:01.142Z,16.83
2023-03-26T02:19:05.290Z,21.70
2023-03-26T02:29:08.060Z,19.90
2023-03-26T02:39:14.264Z,20.30
2023-03-26T02:49:20.177Z,23.13
2023-03-26T02:59:22.986Z,14.63
2023-03-26T03:09:41.567Z,16.07
2023-03-26T03:20:05.392Z,18.30
2023-03-26T03:30:10.936Z,21.83
2023-03-26T03:40:15.960Z,19.33
2023-03-26T03:50:20.084Z,23.50
2023-03-26T04:00:48.856Z,20.30
2023-03-26T04:11:20.009Z,15.70
2023-03-26T04:21:42.850Z,17.83
2023-03-26T04:31:47.318Z,17.60
2023-03-26T04:41:51.888Z,18.30
2023-03-26T04:51:55.960Z,15.80
2023-03-26T05:02:21.419Z,16.70
2023-03-26T05:12:27.755Z,14.20
2023-03-26T05:22:38.882Z,15.20
2023-03-26T05:32:57.105Z,11.83
2023-03-26T05:43:04.698Z,11.57
2023-03-26T05:53:23.718Z,15.83
2023-03-26T06:03:58.118Z,10.07
2023-03-26T06:14:04.175Z,10.43
2023-03-26T06:24:07.886Z,12.43
2023-03-26T06:34:19.968Z,13.67
2023-03-26T06:44:22.613Z,13.33
2023-03-26T06:54:55.439Z,13.87
2023-03-26T07:05:21.242Z,10.13
2023-03-26T07:15:43.864Z,11.33
2023-03-26T07:25:48.284Z,11.03
2023-03-26T07:35:58.205Z,9.03
2023-03-26T07:46:32.240Z,10.60
2023-03-26T07:56:59.352Z,7.13
2023-03-26T08:07:50.864Z,7.93
2023-03-26T08:18:27.294Z,10.97
2023-03-26T08:28:52.998Z,14.23
2023-03-26T08:38:55.327Z,15.57
2023-03-26T08:49:32.715Z,17.57
2023-03-26T08:59:52.035Z,9.37
2023-03-26T09:10:22.479Z,12.00
2023-03-26T09:21:01.957Z,9.70
2023-03-26T09:31:29.602Z,10.27
2023-03-26T09:41:38.477Z,11.27
2023-03-26T09:52:16.526Z,11.60
2023-03-26T10:02:47.205Z,9.60
2023-03-26T10:13:08.132Z,9.00
2023-03-26T10:23:25.900Z,7.00
2023-03-26T10:33:39.622Z,8.80
2023-03-26T10:44:22.118Z,7.77
2023-03-26T10:54:49.585Z,5.80
2023-03-26T11:05:10.521Z,2.87
2023-03-26T11:15:27.902Z,2.20
2023-03-26T11:26:08.062Z,0.63
2023-03-26T11:36:14.852Z,1.50
2023-03-26T11:46:19.195Z,0.90
2023-03-26T11:56:31.350Z,0.90
2023-03-26T12:06:34.459Z,0.27
2023-03-26T12:16:36.719Z,0.83
2023-03-26T12:26:46.474Z,0.47
2023-03-26T12:36:51.385Z,0.30
2023-03-26T12:47:58.789Z,1.07
2023-03-26T12:57:38.955Z,1.70
2023-03-26T13:07:51.807Z,1.33
2023-03-26T13:18:00.268Z,2.75
2023-03-26T13:28:19.987Z,1.93
2023-03-26T13:38:43.483Z,1.20
2023-03-26T13:49:13.756Z,0.37
2023-03-26T13:59:20.862Z,0.53
2023-03-26T14:09:32.068Z,1.55
2023-03-26T14:19:37.473Z,0.40
2023-03-26T14:29:56.746Z,0.47
2023-03-26T14:40:48.667Z,2.03
2023-03-26T14:50:55.974Z,0.30
2023-03-26T15:01:27.131Z,0.40
2023-03-26T15:11:51.937Z,0.70
2023-03-26T15:22:32.616Z,1.38
2023-03-26T15:32:57.185Z,1.50
2023-03-26T15:43:11.941Z,0.73
2023-03-26T15:53:24.651Z,1.90
2023-03-26T16:03:49.860Z,2.73
2023-03-26T16:14:23.343Z,4.20
2023-03-26T16:24:38.829Z,2.03
2023-03-26T16:34:58.178Z,3.77
2023-03-26T16:45:14.004Z,7.47
2023-03-26T16:55:22.010Z,16.37
2023-03-26T17:05:34.690Z,13.60
2023-03-26T17:15:53.648Z,14.07
2023-03-26T17:26:17.693Z,12.03
2023-03-26T17:36:36.346Z,15.20
2023-03-26T17:46:43.009Z,10.57
2023-03-26T17:56:46.171Z,6.07
2023-03-26T18:06:59.456Z,11.27
2023-03-26T18:17:02.071Z,6.07
2023-03-26T18:27:12.520Z,11.10
2023-03-26T18:37:24.757Z,13.27
2023-03-26T18:47:27.522Z,13.90
2023-03-26T18:57:29.982Z,13.40
2023-03-26T19:07:32.259Z,12.40
2023-03-26T19:17:39.884Z,12.33
2023-03-26T19:27:42.514Z,8.10
2023-03-26T19:37:54.136Z,7.13
2023-03-26T19:48:11.739Z,12.67
2023-03-26T19:58:30.721Z,7.90
2023-03-26T20:08:32.912Z,6.30
2023-03-26T20:18:35.301Z,13.53
2023-03-26T20:28:47.279Z,12.33
2023-03-26T20:38:51.214Z,7.77
2023-03-26T20:48:54.920Z,5.10
2023-03-26T21:09:04.518Z,7.57
2023-03-26T21:19:06.820Z,7.57
2023-03-26T21:29:09.437Z,4.40
2023-03-26T21:39:11.844Z,6.83
2023-03-26T21:49:16.330Z,4.90
2023-03-26T21:59:26.940Z,7.07
2023-03-26T22:09:36.410Z,7.10
2023-03-26T22:19:38.828Z,6.03
2023-03-26T22:29:40.982Z,10.17
2023-03-26T22:39:43.364Z,10.13
2023-03-26T22:49:45.482Z,6.23
2023-03-26T22:59:47.736Z,5.80
2023-03-26T23:09:49.874Z,5.97
2023-03-26T23:19:52.159Z,9.33
2023-03-26T23:29:55.393Z,5.37
2023-03-26T23:39:58.928Z,6.33
2023-03-26T23:50:04.444Z,11.17
